sensor_id;sensor_type;location;lat;lon;timestamp;pressure;altitude;pressure_sealevel;temperature;humidity
16738;BME280;17906;47.684;10.806;2022-12-18T00:01:50;94034.97;;;-8.20;100.00
16738;BME280;17906;47.684;10.806;2022-12-18T00:04:20;94037.09;;;-8.25;100.00
16738;BME280;17906;47.684;10.806;2022-12-18T00:06:47;94042.97;;;-8.22;100.00
16738;BME280;17906;47.684;10.806;2022-12-18T00:09:14;94047.34;;;-8.33;100.00
16738;BME280;17906;47.684;10.806;2022-12-18T00:11:41;94047.25;;;-8.32;100.00
16738;BME280;17906;47.684;10.806;2022-12-18T00:14:11;94045.41;;;-8.43;100.00
16738;BME280;17906;47.684;10.806;2022-12-18T00:16:39;94041.22;;;-8.45;100.00
16738;BME280;17906;47.684;10.806;2022-12-18T00:19:05;94033.41;;;-8.23;100.00
16738;BME280;17906;47.684;10.806;2022-12-18T00:21:33;94032.44;;;-8.10;100.00
16738;BME280;17906;47.684;10.806;2022-12-18T00:24:00;94043.19;;;-8.14;100.00
16738;BME280;17906;47.684;10.806;2022-12-18T00:26:29;94049.75;;;-8.08;100.00
16738;BME280;17906;47.684;10.806;2022-12-18T00:28:58;94049.63;;;-8.18;100.00
16738;BME280;17906;47.684;10.806;2022-12-18T00:31:27;94053.94;;;-8.28;100.00
16738;BME280;17906;47.684;10.806;2022-12-18T00:33:54;94057.50;;;-8.40;100.00
16738;BME280;17906;47.684;10.806;2022-12-18T00:36:24;94059.94;;;-8.26;100.00
16738;BME280;17906;47.684;10.806;2022-12-18T00:38:52;94064.13;;;-8.23;100.00
16738;BME280;17906;47.684;10.806;2022-12-18T00:41:19;94072.59;;;-8.08;100.00
16738;BME280;17906;47.684;10.806;2022-12-18T00:44:00;94072.47;;;-8.29;100.00
16738;BME280;17906;47.684;10.806;2022-12-18T00:46:28;94067.81;;;-8.26;100.00
16738;BME280;17906;47.684;10.806;2022-12-18T00:48:55;94065.41;;;-8.29;100.00
16738;BME280;17906;47.684;10.806;2022-12-18T00:51:22;94080.34;;;-8.29;100.00
16738;BME280;17906;47.684;10.806;2022-12-18T00:53:49;94072.34;;;-8.17;100.00
16738;BME280;17906;47.684;10.806;2022-12-18T00:56:15;94073.41;;;-8.19;100.00
16738;BME280;17906;47.684;10.806;2022-12-18T00:58:43;94081.56;;;-8.11;100.00
16738;BME280;17906;47.684;10.806;2022-12-18T01:01:09;94083.25;;;-8.21;100.00
16738;BME280;17906;47.684;10.806;2022-12-18T01:03:38;94085.88;;;-8.10;100.00
16738;BME280;17906;47.684;10.806;2022-12-18T01:06:06;94088.88;;;-8.15;100.00
16738;BME280;17906;47.684;10.806;2022-12-18T01:08:33;94087.66;;;-8.10;100.00
16738;BME280;17906;47.684;10.806;2022-12-18T01:11:00;94080.25;;;-8.05;100.00
16738;BME280;17906;47.684;10.806;2022-12-18T01:13:26;94076.66;;;-8.16;100.00
16738;BME280;17906;47.684;10.806;2022-12-18T01:15:53;94077.59;;;-8.28;100.00
16738;BME280;17906;47.684;10.806;2022-12-18T01:18:19;94088.22;;;-8.29;100.00
16738;BME280;17906;47.684;10.806;2022-12-18T01:20:48;94095.59;;;-8.46;100.00
16738;BME280;17906;47.684;10.806;2022-12-18T01:23:14;94089.72;;;-8.49;100.00
16738;BME280;17906;47.684;10.806;2022-12-18T01:25:41;94087.09;;;-8.49;100.00
16738;BME280;17906;47.684;10.806;2022-12-18T01:28:08;94101.00;;;-8.60;100.00
16738;BME280;17906;47.684;10.806;2022-12-18T01:30:35;94102.59;;;-8.57;100.00
16738;BME280;17906;47.684;10.806;2022-12-18T01:33:01;94103.44;;;-8.57;100.00
16738;BME280;17906;47.684;10.806;2022-12-18T01:35:30;94115.63;;;-8.56;100.00
16738;BME280;17906;47.684;10.806;2022-12-18T01:37:59;94110.34;;;-8.32;100.00
16738;BME280;17906;47.684;10.806;2022-12-18T01:40:25;94109.78;;;-8.24;100.00
16738;BME280;17906;47.684;10.806;2022-12-18T01:42:52;94116.78;;;-8.36;100.00
16738;BME280;17906;47.684;10.806;2022-12-18T01:45:25;94120.50;;;-8.27;100.00
16738;BME280;17906;47.684;10.806;2022-12-18T01:47:53;94112.63;;;-8.27;100.00
16738;BME280;17906;47.684;10.806;2022-12-18T01:50:23;94116.19;;;-8.28;100.00
16738;BME280;17906;47.684;10.806;2022-12-18T01:52:53;94110.22;;;-8.30;100.00
16738;BME280;17906;47.684;10.806;2022-12-18T01:55:23;94109.06;;;-8.26;100.00
16738;BME280;17906;47.684;10.806;2022-12-18T01:57:52;94116.66;;;-8.34;100.00
16738;BME280;17906;47.684;10.806;2022-12-18T02:00:22;94113.22;;;-8.35;100.00
16738;BME280;17906;47.684;10.806;2022-12-18T02:02:50;94109.63;;;-8.34;100.00
16738;BME280;17906;47.684;10.806;2022-12-18T02:05:20;94127.22;;;-8.58;100.00
16738;BME280;17906;47.684;10.806;2022-12-18T02:07:58;94114.31;;;-8.50;100.00
16738;BME280;17906;47.684;10.806;2022-12-18T02:10:30;94108.44;;;-8.30;100.00
16738;BME280;17906;47.684;10.806;2022-12-18T02:13:03;94114.59;;;-8.42;100.00
16738;BME280;17906;47.684;10.806;2022-12-18T02:15:36;94104.88;;;-8.53;100.00
16738;BME280;17906;47.684;10.806;2022-12-18T02:18:07;94109.91;;;-8.50;100.00
16738;BME280;17906;47.684;10.806;2022-12-18T02:20:40;94102.69;;;-8.35;100.00
16738;BME280;17906;47.684;10.806;2022-12-18T02:23:19;94106.72;;;-8.42;100.00
16738;BME280;17906;47.684;10.806;2022-12-18T02:26:06;94103.16;;;-8.30;100.00
16738;BME280;17906;47.684;10.806;2022-12-18T02:28:40;94097.72;;;-8.27;100.00
16738;BME280;17906;47.684;10.806;2022-12-18T02:31:11;94106.59;;;-8.40;100.00
16738;BME280;17906;47.684;10.806;2022-12-18T02:33:41;94098.34;;;-8.47;100.00
16738;BME280;17906;47.684;10.806;2022-12-18T02:36:10;94104.06;;;-8.77;100.00
16738;BME280;17906;47.684;10.806;2022-12-18T02:38:41;94113.00;;;-8.80;100.00
16738;BME280;17906;47.684;10.806;2022-12-18T02:41:10;94114.50;;;-8.88;100.00
16738;BME280;17906;47.684;10.806;2022-12-18T02:43:37;94109.41;;;-9.03;100.00
16738;BME280;17906;47.684;10.806;2022-12-18T02:46:27;94108.84;;;-8.95;100.00
16738;BME280;17906;47.684;10.806;2022-12-18T02:49:01;94112.88;;;-9.02;100.00
16738;BME280;17906;47.684;10.806;2022-12-18T02:51:36;94112.47;;;-8.85;100.00
16738;BME280;17906;47.684;10.806;2022-12-18T02:54:09;94119.81;;;-8.77;100.00
16738;BME280;17906;47.684;10.806;2022-12-18T02:56:43;94126.44;;;-8.84;100.00
16738;BME280;17906;47.684;10.806;2022-12-18T02:59:13;94111.22;;;-8.79;100.00
16738;BME280;17906;47.684;10.806;2022-12-18T03:01:50;94118.91;;;-8.65;100.00
16738;BME280;17906;47.684;10.806;2022-12-18T03:04:39;94117.84;;;-8.62;100.00
16738;BME280;17906;47.684;10.806;2022-12-18T03:07:15;94109.06;;;-8.74;100.00
16738;BME280;17906;47.684;10.806;2022-12-18T03:09:48;94106.13;;;-8.69;100.00
16738;BME280;17906;47.684;10.806;2022-12-18T03:12:21;94099.91;;;-8.68;100.00
16738;BME280;17906;47.684;10.806;2022-12-18T03:14:53;94106.06;;;-8.57;100.00
16738;BME280;17906;47.684;10.806;2022-12-18T03:17:25;94096.16;;;-8.53;100.00
16738;BME280;17906;47.684;10.806;2022-12-18T03:19:54;94100.94;;;-8.58;100.00
16738;BME280;17906;47.684;10.806;2022-12-18T03:22:24;94101.66;;;-8.80;100.00
16738;BME280;17906;47.684;10.806;2022-12-18T03:24:54;94103.38;;;-8.92;100.00
16738;BME280;17906;47.684;10.806;2022-12-18T03:27:26;94105.66;;;-8.87;100.00
16738;BME280;17906;47.684;10.806;2022-12-18T03:30:00;94107.75;;;-8.92;100.00
16738;BME280;17906;47.684;10.806;2022-12-18T03:32:36;94098.38;;;-8.84;100.00
16738;BME280;17906;47.684;10.806;2022-12-18T03:35:08;94097.13;;;-8.78;100.00
16738;BME280;17906;47.684;10.806;2022-12-18T03:37:37;94099.53;;;-8.75;100.00
16738;BME280;17906;47.684;10.806;2022-12-18T03:40:05;94103.03;;;-8.87;100.00
16738;BME280;17906;47.684;10.806;2022-12-18T03:42:40;94108.97;;;-8.73;100.00
16738;BME280;17906;47.684;10.806;2022-12-18T03:45:13;94109.78;;;-8.96;100.00
16738;BME280;17906;47.684;10.806;2022-12-18T03:47:54;94101.78;;;-9.18;100.00
16738;BME280;17906;47.684;10.806;2022-12-18T03:50:29;94101.91;;;-9.33;100.00
16738;BME280;17906;47.684;10.806;2022-12-18T03:53:00;94104.47;;;-9.44;100.00
16738;BME280;17906;47.684;10.806;2022-12-18T03:55:33;94107.72;;;-9.53;100.00
16738;BME280;17906;47.684;10.806;2022-12-18T03:58:03;94103.59;;;-9.32;100.00
16738;BME280;17906;47.684;10.806;2022-12-18T04:00:33;94109.97;;;-9.23;100.00
16738;BME280;17906;47.684;10.806;2022-12-18T04:03:02;94114.34;;;-9.11;100.00
16738;BME280;17906;47.684;10.806;2022-12-18T04:05:32;94110.97;;;-9.00;100.00
16738;BME280;17906;47.684;10.806;2022-12-18T04:08:00;94125.97;;;-8.89;100.00
16738;BME280;17906;47.684;10.806;2022-12-18T04:10:27;94119.22;;;-8.93;100.00
16738;BME280;17906;47.684;10.806;2022-12-18T04:12:55;94123.31;;;-8.89;100.00
16738;BME280;17906;47.684;10.806;2022-12-18T04:15:23;94119.28;;;-9.06;100.00
16738;BME280;17906;47.684;10.806;2022-12-18T04:17:50;94118.69;;;-9.22;100.00
16738;BME280;17906;47.684;10.806;2022-12-18T04:20:18;94120.69;;;-9.26;100.00
16738;BME280;17906;47.684;10.806;2022-12-18T04:22:44;94121.75;;;-9.28;100.00
16738;BME280;17906;47.684;10.806;2022-12-18T04:25:11;94127.63;;;-9.38;100.00
16738;BME280;17906;47.684;10.806;2022-12-18T04:27:38;94126.50;;;-9.34;100.00
16738;BME280;17906;47.684;10.806;2022-12-18T04:30:06;94130.91;;;-9.47;100.00
16738;BME280;17906;47.684;10.806;2022-12-18T04:32:34;94131.75;;;-9.46;100.00
16738;BME280;17906;47.684;10.806;2022-12-18T04:35:02;94124.81;;;-9.47;100.00
16738;BME280;17906;47.684;10.806;2022-12-18T04:37:32;94124.50;;;-9.68;100.00
16738;BME280;17906;47.684;10.806;2022-12-18T04:39:58;94137.13;;;-9.86;100.00
16738;BME280;17906;47.684;10.806;2022-12-18T04:42:25;94144.66;;;-9.81;100.00
16738;BME280;17906;47.684;10.806;2022-12-18T04:44:52;94139.75;;;-9.73;100.00
16738;BME280;17906;47.684;10.806;2022-12-18T04:47:18;94136.91;;;-9.83;100.00
16738;BME280;17906;47.684;10.806;2022-12-18T04:49:46;94140.69;;;-9.62;100.00
16738;BME280;17906;47.684;10.806;2022-12-18T04:52:13;94136.81;;;-9.56;100.00
16738;BME280;17906;47.684;10.806;2022-12-18T04:54:40;94153.91;;;-9.63;100.00
16738;BME280;17906;47.684;10.806;2022-12-18T04:57:06;94151.06;;;-9.85;100.00
16738;BME280;17906;47.684;10.806;2022-12-18T04:59:33;94161.44;;;-9.71;100.00
16738;BME280;17906;47.684;10.806;2022-12-18T05:02:00;94156.41;;;-9.62;100.00
16738;BME280;17906;47.684;10.806;2022-12-18T05:04:26;94152.34;;;-9.53;100.00
16738;BME280;17906;47.684;10.806;2022-12-18T05:06:54;94157.34;;;-9.50;100.00
16738;BME280;17906;47.684;10.806;2022-12-18T05:09:21;94163.56;;;-9.76;100.00
16738;BME280;17906;47.684;10.806;2022-12-18T05:11:48;94170.16;;;-9.83;100.00
16738;BME280;17906;47.684;10.806;2022-12-18T05:14:15;94168.47;;;-9.84;100.00
16738;BME280;17906;47.684;10.806;2022-12-18T05:16:41;94158.00;;;-9.84;100.00
16738;BME280;17906;47.684;10.806;2022-12-18T05:19:11;94164.72;;;-9.68;100.00
16738;BME280;17906;47.684;10.806;2022-12-18T05:21:37;94169.97;;;-9.55;100.00
16738;BME280;17906;47.684;10.806;2022-12-18T05:24:06;94173.09;;;-9.37;100.00
16738;BME280;17906;47.684;10.806;2022-12-18T05:26:33;94176.56;;;-9.49;100.00
16738;BME280;17906;47.684;10.806;2022-12-18T05:29:00;94177.50;;;-9.63;100.00
16738;BME280;17906;47.684;10.806;2022-12-18T05:31:27;94191.03;;;-9.69;100.00
16738;BME280;17906;47.684;10.806;2022-12-18T05:33:53;94201.13;;;-9.63;100.00
16738;BME280;17906;47.684;10.806;2022-12-18T05:36:20;94198.19;;;-9.58;100.00
16738;BME280;17906;47.684;10.806;2022-12-18T05:38:47;94204.69;;;-9.51;100.00
16738;BME280;17906;47.684;10.806;2022-12-18T05:41:15;94207.66;;;-9.43;100.00
16738;BME280;17906;47.684;10.806;2022-12-18T05:43:42;94205.53;;;-9.38;100.00
16738;BME280;17906;47.684;10.806;2022-12-18T05:46:12;94199.97;;;-9.34;100.00
16738;BME280;17906;47.684;10.806;2022-12-18T05:48:39;94200.59;;;-9.30;100.00
16738;BME280;17906;47.684;10.806;2022-12-18T05:51:07;94199.56;;;-9.53;100.00
16738;BME280;17906;47.684;10.806;2022-12-18T05:53:36;94208.25;;;-9.40;100.00
16738;BME280;17906;47.684;10.806;2022-12-18T05:56:05;94207.84;;;-9.34;100.00
16738;BME280;17906;47.684;10.806;2022-12-18T05:58:33;94205.03;;;-9.43;100.00
16738;BME280;17906;47.684;10.806;2022-12-18T06:01:06;94205.75;;;-9.28;100.00
16738;BME280;17906;47.684;10.806;2022-12-18T06:03:34;94206.34;;;-9.25;100.00
16738;BME280;17906;47.684;10.806;2022-12-18T06:06:02;94200.91;;;-9.22;100.00
16738;BME280;17906;47.684;10.806;2022-12-18T06:08:28;94196.63;;;-9.23;100.00
16738;BME280;17906;47.684;10.806;2022-12-18T06:10:55;94200.09;;;-9.22;100.00
16738;BME280;17906;47.684;10.806;2022-12-18T06:13:22;94205.09;;;-9.07;100.00
16738;BME280;17906;47.684;10.806;2022-12-18T06:15:50;94212.66;;;-9.15;100.00
16738;BME280;17906;47.684;10.806;2022-12-18T06:18:16;94209.00;;;-9.12;100.00
16738;BME280;17906;47.684;10.806;2022-12-18T06:20:43;94197.53;;;-9.11;100.00
16738;BME280;17906;47.684;10.806;2022-12-18T06:23:10;94207.63;;;-9.18;100.00
16738;BME280;17906;47.684;10.806;2022-12-18T06:25:38;94199.44;;;-9.13;100.00
16738;BME280;17906;47.684;10.806;2022-12-18T06:28:05;94197.97;;;-9.17;100.00
16738;BME280;17906;47.684;10.806;2022-12-18T06:30:32;94202.34;;;-9.05;100.00
16738;BME280;17906;47.684;10.806;2022-12-18T06:33:00;94197.72;;;-9.14;100.00
16738;BME280;17906;47.684;10.806;2022-12-18T06:35:27;94208.16;;;-9.25;100.00
16738;BME280;17906;47.684;10.806;2022-12-18T06:37:53;94203.66;;;-9.23;100.00
16738;BME280;17906;47.684;10.806;2022-12-18T06:40:20;94217.06;;;-9.28;100.00
16738;BME280;17906;47.684;10.806;2022-12-18T06:42:47;94214.25;;;-9.38;100.00
16738;BME280;17906;47.684;10.806;2022-12-18T06:45:16;94209.09;;;-9.26;100.00
16738;BME280;17906;47.684;10.806;2022-12-18T06:47:43;94212.25;;;-9.21;100.00
16738;BME280;17906;47.684;10.806;2022-12-18T06:50:11;94212.56;;;-9.26;100.00
16738;BME280;17906;47.684;10.806;2022-12-18T06:52:38;94215.84;;;-9.35;100.00
16738;BME280;17906;47.684;10.806;2022-12-18T06:55:06;94216.75;;;-9.36;100.00
16738;BME280;17906;47.684;10.806;2022-12-18T06:57:33;94222.34;;;-9.53;100.00
16738;BME280;17906;47.684;10.806;2022-12-18T07:00:00;94230.19;;;-9.66;100.00
16738;BME280;17906;47.684;10.806;2022-12-18T07:02:28;94244.88;;;-9.64;100.00
16738;BME280;17906;47.684;10.806;2022-12-18T07:04:54;94242.56;;;-9.68;100.00
16738;BME280;17906;47.684;10.806;2022-12-18T07:07:23;94238.13;;;-9.80;100.00
16738;BME280;17906;47.684;10.806;2022-12-18T07:09:51;94236.47;;;-9.81;100.00
16738;BME280;17906;47.684;10.806;2022-12-18T07:12:17;94243.31;;;-9.79;100.00
16738;BME280;17906;47.684;10.806;2022-12-18T07:14:44;94252.09;;;-9.80;100.00
16738;BME280;17906;47.684;10.806;2022-12-18T07:17:11;94245.72;;;-9.76;100.00
16738;BME280;17906;47.684;10.806;2022-12-18T07:19:37;94243.09;;;-9.63;100.00
16738;BME280;17906;47.684;10.806;2022-12-18T07:22:04;94250.69;;;-9.46;100.00
16738;BME280;17906;47.684;10.806;2022-12-18T07:24:33;94247.53;;;-9.51;100.00
16738;BME280;17906;47.684;10.806;2022-12-18T07:27:00;94266.50;;;-9.60;100.00
16738;BME280;17906;47.684;10.806;2022-12-18T07:29:27;94252.97;;;-9.67;100.00
16738;BME280;17906;47.684;10.806;2022-12-18T07:31:53;94254.03;;;-9.56;100.00
16738;BME280;17906;47.684;10.806;2022-12-18T07:34:20;94252.63;;;-9.87;100.00
16738;BME280;17906;47.684;10.806;2022-12-18T07:36:47;94263.72;;;-9.97;100.00
16738;BME280;17906;47.684;10.806;2022-12-18T07:39:13;94272.50;;;-9.98;100.00
16738;BME280;17906;47.684;10.806;2022-12-18T07:41:43;94271.81;;;-9.87;100.00
16738;BME280;17906;47.684;10.806;2022-12-18T07:44:29;94271.50;;;-9.82;100.00
16738;BME280;17906;47.684;10.806;2022-12-18T07:46:56;94272.22;;;-9.80;100.00
16738;BME280;17906;47.684;10.806;2022-12-18T07:49:22;94275.72;;;-10.07;100.00
16738;BME280;17906;47.684;10.806;2022-12-18T07:51:49;94284.91;;;-10.14;100.00
16738;BME280;17906;47.684;10.806;2022-12-18T07:54:16;94280.72;;;-10.16;100.00
16738;BME280;17906;47.684;10.806;2022-12-18T07:56:44;94280.88;;;-10.05;100.00
16738;BME280;17906;47.684;10.806;2022-12-18T07:59:10;94282.44;;;-10.03;100.00
16738;BME280;17906;47.684;10.806;2022-12-18T08:01:37;94277.91;;;-9.86;100.00
16738;BME280;17906;47.684;10.806;2022-12-18T08:04:04;94272.16;;;-9.79;100.00
16738;BME280;17906;47.684;10.806;2022-12-18T08:06:31;94278.88;;;-9.62;100.00
16738;BME280;17906;47.684;10.806;2022-12-18T08:08:58;94275.88;;;-9.56;100.00
16738;BME280;17906;47.684;10.806;2022-12-18T08:11:26;94271.75;;;-9.60;100.00
16738;BME280;17906;47.684;10.806;2022-12-18T08:13:54;94288.25;;;-9.98;100.00
16738;BME280;17906;47.684;10.806;2022-12-18T08:16:21;94286.00;;;-10.04;100.00
16738;BME280;17906;47.684;10.806;2022-12-18T08:18:49;94293.38;;;-10.23;100.00
16738;BME280;17906;47.684;10.806;2022-12-18T08:21:17;94294.84;;;-10.73;100.00
16738;BME280;17906;47.684;10.806;2022-12-18T08:23:46;94287.38;;;-10.52;100.00
16738;BME280;17906;47.684;10.806;2022-12-18T08:26:13;94294.31;;;-10.24;100.00
16738;BME280;17906;47.684;10.806;2022-12-18T08:28:40;94297.13;;;-10.27;100.00
16738;BME280;17906;47.684;10.806;2022-12-18T08:31:09;94298.75;;;-10.39;100.00
16738;BME280;17906;47.684;10.806;2022-12-18T08:33:37;94300.47;;;-10.11;100.00
16738;BME280;17906;47.684;10.806;2022-12-18T08:36:05;94300.81;;;-10.03;100.00
16738;BME280;17906;47.684;10.806;2022-12-18T08:38:32;94296.84;;;-9.96;100.00
16738;BME280;17906;47.684;10.806;2022-12-18T08:40:59;94294.88;;;-9.79;100.00
16738;BME280;17906;47.684;10.806;2022-12-18T08:43:26;94296.38;;;-9.75;100.00
16738;BME280;17906;47.684;10.806;2022-12-18T08:46:11;94295.13;;;-9.70;100.00
16738;BME280;17906;47.684;10.806;2022-12-18T08:48:38;94290.13;;;-9.47;100.00
16738;BME280;17906;47.684;10.806;2022-12-18T08:51:05;94291.41;;;-9.53;100.00
16738;BME280;17906;47.684;10.806;2022-12-18T08:53:32;94297.97;;;-9.73;100.00
16738;BME280;17906;47.684;10.806;2022-12-18T08:55:58;94293.91;;;-9.91;100.00
16738;BME280;17906;47.684;10.806;2022-12-18T08:58:25;94299.09;;;-9.90;100.00
16738;BME280;17906;47.684;10.806;2022-12-18T09:00:51;94300.22;;;-9.94;100.00
16738;BME280;17906;47.684;10.806;2022-12-18T09:03:20;94286.59;;;-9.86;100.00
16738;BME280;17906;47.684;10.806;2022-12-18T09:05:47;94301.78;;;-9.51;100.00
16738;BME280;17906;47.684;10.806;2022-12-18T09:08:14;94296.22;;;-9.47;100.00
16738;BME280;17906;47.684;10.806;2022-12-18T09:10:42;94296.09;;;-9.58;100.00
16738;BME280;17906;47.684;10.806;2022-12-18T09:13:09;94292.25;;;-9.52;100.00
16738;BME280;17906;47.684;10.806;2022-12-18T09:15:40;94295.59;;;-9.38;100.00
16738;BME280;17906;47.684;10.806;2022-12-18T09:18:07;94290.47;;;-9.26;100.00
16738;BME280;17906;47.684;10.806;2022-12-18T09:20:35;94283.03;;;-9.20;100.00
16738;BME280;17906;47.684;10.806;2022-12-18T09:23:02;94285.34;;;-8.90;100.00
16738;BME280;17906;47.684;10.806;2022-12-18T09:25:29;94291.56;;;-8.91;100.00
16738;BME280;17906;47.684;10.806;2022-12-18T09:27:58;94295.09;;;-8.79;99.84
16738;BME280;17906;47.684;10.806;2022-12-18T09:30:25;94294.47;;;-8.70;99.23
16738;BME280;17906;47.684;10.806;2022-12-18T09:32:52;94289.31;;;-8.59;97.88
16738;BME280;17906;47.684;10.806;2022-12-18T09:35:19;94295.09;;;-8.66;97.73
16738;BME280;17906;47.684;10.806;2022-12-18T09:37:47;94299.63;;;-8.81;97.91
16738;BME280;17906;47.684;10.806;2022-12-18T09:40:14;94296.66;;;-8.64;97.64
16738;BME280;17906;47.684;10.806;2022-12-18T09:42:44;94290.84;;;-8.44;96.57
16738;BME280;17906;47.684;10.806;2022-12-18T09:45:13;94296.75;;;-8.65;97.20
16738;BME280;17906;47.684;10.806;2022-12-18T09:47:42;94298.47;;;-8.77;97.60
16738;BME280;17906;47.684;10.806;2022-12-18T09:50:23;94295.13;;;-8.92;98.29
16738;BME280;17906;47.684;10.806;2022-12-18T09:52:54;94297.31;;;-8.86;96.15
16738;BME280;17906;47.684;10.806;2022-12-18T09:55:25;94295.09;;;-8.79;98.05
16738;BME280;17906;47.684;10.806;2022-12-18T09:57:56;94291.41;;;-8.77;96.28
16738;BME280;17906;47.684;10.806;2022-12-18T10:00:26;94301.09;;;-8.77;97.14
16738;BME280;17906;47.684;10.806;2022-12-18T10:02:58;94294.56;;;-8.72;97.00
16738;BME280;17906;47.684;10.806;2022-12-18T10:05:33;94294.16;;;-8.78;96.60
16738;BME280;17906;47.684;10.806;2022-12-18T10:08:06;94293.94;;;-8.88;98.49
16738;BME280;17906;47.684;10.806;2022-12-18T10:10:40;94283.19;;;-8.72;97.31
16738;BME280;17906;47.684;10.806;2022-12-18T10:13:17;94280.13;;;-8.53;96.53
16738;BME280;17906;47.684;10.806;2022-12-18T10:15:54;94276.78;;;-8.55;96.42
16738;BME280;17906;47.684;10.806;2022-12-18T10:18:32;94280.66;;;-8.48;95.83
16738;BME280;17906;47.684;10.806;2022-12-18T10:21:05;94274.84;;;-8.40;95.92
16738;BME280;17906;47.684;10.806;2022-12-18T10:23:42;94278.94;;;-8.49;95.27
16738;BME280;17906;47.684;10.806;2022-12-18T10:26:11;94276.94;;;-8.33;96.49
16738;BME280;17906;47.684;10.806;2022-12-18T10:28:39;94269.81;;;-8.20;95.77
16738;BME280;17906;47.684;10.806;2022-12-18T10:31:13;94270.53;;;-8.18;95.15
16738;BME280;17906;47.684;10.806;2022-12-18T10:33:42;94274.44;;;-7.75;94.25
16738;BME280;17906;47.684;10.806;2022-12-18T10:36:09;94272.25;;;-7.58;92.58
16738;BME280;17906;47.684;10.806;2022-12-18T10:38:38;94263.13;;;-7.65;92.83
16738;BME280;17906;47.684;10.806;2022-12-18T10:41:06;94273.25;;;-7.47;92.27
16738;BME280;17906;47.684;10.806;2022-12-18T10:43:35;94266.34;;;-7.37;91.97
16738;BME280;17906;47.684;10.806;2022-12-18T10:46:12;94262.69;;;-7.12;89.52
16738;BME280;17906;47.684;10.806;2022-12-18T10:48:48;94267.59;;;-7.08;89.31
16738;BME280;17906;47.684;10.806;2022-12-18T10:51:20;94265.72;;;-7.41;91.14
16738;BME280;17906;47.684;10.806;2022-12-18T10:53:52;94275.66;;;-7.44;91.58
16738;BME280;17906;47.684;10.806;2022-12-18T10:56:21;94267.53;;;-7.30;90.68
16738;BME280;17906;47.684;10.806;2022-12-18T10:58:56;94265.03;;;-7.32;91.37
16738;BME280;17906;47.684;10.806;2022-12-18T11:01:24;94267.00;;;-7.58;93.20
16738;BME280;17906;47.684;10.806;2022-12-18T11:04:00;94253.47;;;-7.53;92.43
16738;BME280;17906;47.684;10.806;2022-12-18T11:06:27;94247.44;;;-7.20;91.90
16738;BME280;17906;47.684;10.806;2022-12-18T11:09:00;94252.16;;;-7.01;89.97
16738;BME280;17906;47.684;10.806;2022-12-18T11:11:27;94252.97;;;-7.23;90.34
16738;BME280;17906;47.684;10.806;2022-12-18T11:13:59;94255.78;;;-7.48;91.79
16738;BME280;17906;47.684;10.806;2022-12-18T11:16:29;94253.91;;;-7.24;92.26
16738;BME280;17906;47.684;10.806;2022-12-18T11:19:12;94243.88;;;-7.08;91.88
16738;BME280;17906;47.684;10.806;2022-12-18T11:21:40;94246.06;;;-6.90;89.92
16738;BME280;17906;47.684;10.806;2022-12-18T11:24:17;94248.56;;;-6.67;89.16
16738;BME280;17906;47.684;10.806;2022-12-18T11:26:45;94241.50;;;-6.66;89.13
16738;BME280;17906;47.684;10.806;2022-12-18T11:29:17;94241.16;;;-6.50;87.41
16738;BME280;17906;47.684;10.806;2022-12-18T11:31:44;94248.22;;;-6.84;88.97
16738;BME280;17906;47.684;10.806;2022-12-18T11:34:13;94249.78;;;-6.82;90.76
16738;BME280;17906;47.684;10.806;2022-12-18T11:36:45;94253.38;;;-6.83;90.26
16738;BME280;17906;47.684;10.806;2022-12-18T11:39:18;94245.22;;;-6.91;91.19
16738;BME280;17906;47.684;10.806;2022-12-18T11:41:50;94246.91;;;-6.90;90.61
16738;BME280;17906;47.684;10.806;2022-12-18T11:44:42;94246.66;;;-6.87;90.43
16738;BME280;17906;47.684;10.806;2022-12-18T11:47:18;94255.06;;;-6.59;89.55
16738;BME280;17906;47.684;10.806;2022-12-18T11:49:49;94243.53;;;-6.81;90.32
16738;BME280;17906;47.684;10.806;2022-12-18T11:52:19;94244.25;;;-6.90;90.56
16738;BME280;17906;47.684;10.806;2022-12-18T11:54:52;94248.81;;;-6.92;91.18
16738;BME280;17906;47.684;10.806;2022-12-18T11:57:29;94243.53;;;-7.03;91.63
16738;BME280;17906;47.684;10.806;2022-12-18T12:00:07;94252.63;;;-7.18;91.37
16738;BME280;17906;47.684;10.806;2022-12-18T12:02:57;94255.38;;;-6.98;92.01
16738;BME280;17906;47.684;10.806;2022-12-18T12:05:40;94246.13;;;-7.26;92.10
16738;BME280;17906;47.684;10.806;2022-12-18T12:08:15;94255.25;;;-7.18;92.40
16738;BME280;17906;47.684;10.806;2022-12-18T12:10:55;94247.91;;;-7.37;93.80
16738;BME280;17906;47.684;10.806;2022-12-18T12:13:35;94242.16;;;-7.31;92.75
16738;BME280;17906;47.684;10.806;2022-12-18T12:16:11;94251.75;;;-7.19;92.89
16738;BME280;17906;47.684;10.806;2022-12-18T12:18:52;94237.03;;;-7.21;92.97
16738;BME280;17906;47.684;10.806;2022-12-18T12:21:27;94239.69;;;-7.10;91.97
16738;BME280;17906;47.684;10.806;2022-12-18T12:24:00;94232.41;;;-6.95;92.57
16738;BME280;17906;47.684;10.806;2022-12-18T12:26:34;94230.59;;;-7.06;91.52
16738;BME280;17906;47.684;10.806;2022-12-18T12:29:13;94221.03;;;-6.96;91.13
16738;BME280;17906;47.684;10.806;2022-12-18T12:32:00;94213.59;;;-6.69;90.46
16738;BME280;17906;47.684;10.806;2022-12-18T12:34:34;94218.50;;;-6.75;90.90
16738;BME280;17906;47.684;10.806;2022-12-18T12:37:15;94226.19;;;-6.72;90.82
16738;BME280;17906;47.684;10.806;2022-12-18T12:39:47;94212.88;;;-6.82;90.39
16738;BME280;17906;47.684;10.806;2022-12-18T12:42:20;94217.88;;;-6.56;90.34
16738;BME280;17906;47.684;10.806;2022-12-18T12:45:15;94217.44;;;-6.84;91.04
16738;BME280;17906;47.684;10.806;2022-12-18T12:47:43;94215.16;;;-6.77;90.98
16738;BME280;17906;47.684;10.806;2022-12-18T12:50:14;94211.91;;;-6.58;89.65
16738;BME280;17906;47.684;10.806;2022-12-18T12:52:45;94209.13;;;-6.46;90.54
16738;BME280;17906;47.684;10.806;2022-12-18T12:55:17;94209.50;;;-6.50;89.69
16738;BME280;17906;47.684;10.806;2022-12-18T12:57:54;94203.34;;;-6.28;88.62